createdAt,value
2023-08-21T00:00:51.101Z,17.65
2023-08-21T00:01:51.078Z,17.54
2023-08-21T00:02:51.079Z,17.63
2023-08-21T00:03:51.082Z,17.64
2023-08-21T00:04:51.048Z,17.59
2023-08-21T00:05:51.021Z,17.60
2023-08-21T00:06:51.009Z,17.65
2023-08-21T00:07:51.016Z,17.65
2023-08-21T00:08:50.997Z,17.64
2023-08-21T00:09:50.988Z,17.57
2023-08-21T00:10:50.968Z,17.64
2023-08-21T00:11:50.968Z,17.63
2023-08-21T00:12:50.949Z,17.63
2023-08-21T00:13:50.955Z,17.57
2023-08-21T00:14:50.929Z,17.65
2023-08-21T00:15:50.920Z,17.63
2023-08-21T00:16:50.959Z,17.45
2023-08-21T00:17:50.957Z,17.44
2023-08-21T00:18:50.895Z,17.41
2023-08-21T00:19:50.884Z,17.41
2023-08-21T00:20:50.867Z,17.41
2023-08-21T00:21:50.865Z,17.36
2023-08-21T00:22:50.865Z,17.41
2023-08-21T00:23:50.834Z,17.38
2023-08-21T00:24:50.857Z,17.30
2023-08-21T00:25:50.820Z,17.24
2023-08-21T00:26:50.799Z,17.27
2023-08-21T00:27:50.790Z,17.27
2023-08-21T00:28:50.777Z,17.16
2023-08-21T00:29:50.763Z,17.23
2023-08-21T00:30:50.807Z,17.22
2023-08-21T00:31:50.753Z,17.12
2023-08-21T00:32:50.742Z,17.23
2023-08-21T00:33:50.746Z,17.15
2023-08-21T00:34:50.728Z,17.19
2023-08-21T00:35:50.704Z,17.16
2023-08-21T00:36:50.709Z,17.04
2023-08-21T00:37:50.677Z,17.08
2023-08-21T00:38:50.673Z,17.01
2023-08-21T00:39:50.680Z,17.08
2023-08-21T00:40:50.656Z,17.09
2023-08-21T00:41:50.635Z,17.09
2023-08-21T00:42:50.628Z,17.06
2023-08-21T00:43:50.629Z,17.09
2023-08-21T00:44:50.623Z,17.09
2023-08-21T00:45:50.649Z,17.06
2023-08-21T00:46:50.578Z,17.06
2023-08-21T00:47:50.612Z,17.04
2023-08-21T00:48:50.565Z,17.11
2023-08-21T00:49:50.582Z,17.14
2023-08-21T00:50:50.555Z,17.06
2023-08-21T00:51:50.540Z,17.01
2023-08-21T00:52:50.596Z,17.11
2023-08-21T00:53:50.507Z,17.11
2023-08-21T00:54:50.499Z,17.11
2023-08-21T00:55:50.501Z,17.04
2023-08-21T00:56:51.849Z,17.08
2023-08-21T00:57:50.462Z,17.04
2023-08-21T00:58:50.453Z,17.01
2023-08-21T00:59:50.444Z,17.04
2023-08-21T01:00:50.431Z,17.11
2023-08-21T01:01:50.481Z,17.02
2023-08-21T01:02:50.428Z,16.94
2023-08-21T01:03:50.400Z,17.14
2023-08-21T01:04:50.383Z,17.08
2023-08-21T01:05:50.452Z,16.96
2023-08-21T01:06:50.391Z,17.12
2023-08-21T01:07:50.353Z,17.04
2023-08-21T01:08:50.350Z,17.04
2023-08-21T01:09:50.327Z,16.97
2023-08-21T01:10:50.324Z,17.04
2023-08-21T01:11:50.324Z,16.89
2023-08-21T01:12:50.304Z,16.90
2023-08-21T01:13:50.334Z,16.93
2023-08-21T01:14:50.272Z,16.94
2023-08-21T01:15:50.330Z,16.93
2023-08-21T01:16:50.252Z,16.91
2023-08-21T01:17:50.279Z,16.93
2023-08-21T01:18:50.232Z,16.97
2023-08-21T01:19:50.253Z,16.96
2023-08-21T01:20:50.210Z,16.89
2023-08-21T01:21:50.227Z,16.96
2023-08-21T01:22:50.195Z,16.93
2023-08-21T01:23:50.177Z,16.90
2023-08-21T01:24:50.171Z,16.96
2023-08-21T01:25:50.154Z,16.91
2023-08-21T01:26:50.155Z,16.94
2023-08-21T01:27:50.149Z,16.91
2023-08-21T01:28:50.125Z,16.87
2023-08-21T01:29:50.107Z,16.87
2023-08-21T01:30:50.104Z,16.81
2023-08-21T01:31:50.184Z,16.86
2023-08-21T01:32:50.145Z,16.87
2023-08-21T01:33:50.073Z,16.79
2023-08-21T01:34:50.067Z,16.83
2023-08-21T01:35:50.052Z,16.86
2023-08-21T01:36:50.038Z,16.86
2023-08-21T01:37:50.057Z,16.87
2023-08-21T01:38:50.019Z,16.79
2023-08-21T01:39:50.001Z,16.79
2023-08-21T01:40:49.996Z,16.91
2023-08-21T01:41:49.993Z,16.87
2023-08-21T01:42:49.993Z,16.94
2023-08-21T01:43:49.988Z,16.93
2023-08-21T01:44:49.951Z,16.87
2023-08-21T01:45:49.959Z,16.93
2023-08-21T01:46:49.931Z,16.96
2023-08-21T01:47:49.993Z,16.94
2023-08-21T01:48:49.921Z,16.94
2023-08-21T01:49:49.947Z,16.94
2023-08-21T01:50:49.887Z,16.97
2023-08-21T01:51:49.890Z,16.89
2023-08-21T01:52:49.860Z,16.96
2023-08-21T01:53:49.890Z,16.93
2023-08-21T01:54:49.902Z,16.94
2023-08-21T01:55:49.851Z,16.91
2023-08-21T01:56:49.822Z,16.94
2023-08-21T01:57:49.809Z,16.90
2023-08-21T01:58:49.821Z,16.94
2023-08-21T01:59:49.788Z,16.87
2023-08-21T02:00:49.813Z,16.97
2023-08-21T02:01:49.796Z,16.91
2023-08-21T02:02:49.841Z,16.94
2023-08-21T02:03:49.804Z,16.89
2023-08-21T02:04:49.756Z,16.96
2023-08-21T02:05:49.720Z,16.96
2023-08-21T02:06:49.713Z,17.01
2023-08-21T02:07:49.705Z,17.01
2023-08-21T02:08:49.704Z,16.97
2023-08-21T02:09:49.693Z,16.94
2023-08-21T02:10:49.676Z,16.97
2023-08-21T02:11:49.658Z,16.97
2023-08-21T02:12:49.641Z,16.96
2023-08-21T02:13:49.629Z,16.91
2023-08-21T02:14:49.624Z,16.91
2023-08-21T02:15:49.656Z,17.01
2023-08-21T02:16:49.614Z,16.94
2023-08-21T02:17:49.616Z,16.94
2023-08-21T02:18:49.599Z,16.91
2023-08-21T02:19:49.585Z,16.87
2023-08-21T02:20:49.570Z,16.90
2023-08-21T02:21:49.604Z,16.96
2023-08-21T02:22:49.537Z,16.94
2023-08-21T02:23:49.522Z,16.87
2023-08-21T02:24:49.512Z,16.89
2023-08-21T02:25:49.625Z,16.83
2023-08-21T02:26:49.499Z,16.84
2023-08-21T02:27:49.576Z,16.72
2023-08-21T02:28:49.467Z,16.68
2023-08-21T02:29:49.461Z,16.64
2023-08-21T02:30:49.494Z,16.57
2023-08-21T02:31:49.440Z,16.64
2023-08-21T02:32:49.450Z,16.56
2023-08-21T02:33:49.408Z,16.54
2023-08-21T02:34:49.404Z,16.66
2023-08-21T02:35:49.395Z,16.57
2023-08-21T02:36:49.399Z,16.57
2023-08-21T02:37:49.374Z,16.56
2023-08-21T02:38:49.372Z,16.56
2023-08-21T02:39:49.357Z,16.64
2023-08-21T02:40:49.376Z,16.61
2023-08-21T02:41:49.363Z,16.58
2023-08-21T02:42:49.324Z,16.61
2023-08-21T02:43:49.306Z,16.64
2023-08-21T02:44:49.300Z,16.64
2023-08-21T02:45:49.279Z,16.65
2023-08-21T02:46:49.306Z,16.68
2023-08-21T02:47:49.298Z,16.61
2023-08-21T02:48:49.247Z,16.66
2023-08-21T02:49:49.238Z,16.61
2023-08-21T02:50:49.228Z,16.68
2023-08-21T02:51:49.222Z,16.69
2023-08-21T02:52:49.214Z,16.60
2023-08-21T02:53:49.210Z,16.61
2023-08-21T02:54:49.204Z,16.64
2023-08-21T02:55:49.182Z,16.65
2023-08-21T02:56:49.164Z,16.61
2023-08-21T02:57:49.186Z,16.60
2023-08-21T02:58:49.143Z,16.66
2023-08-21T02:59:49.127Z,16.61
2023-08-21T03:00:49.152Z,16.68
2023-08-21T03:01:49.134Z,16.64
2023-08-21T03:02:49.209Z,16.61
2023-08-21T03:03:49.094Z,16.65
2023-08-21T03:04:49.076Z,16.68
2023-08-21T03:05:49.070Z,16.60
2023-08-21T03:06:49.062Z,16.60
2023-08-21T03:07:49.071Z,16.71
2023-08-21T03:08:49.032Z,16.66
2023-08-21T03:09:49.018Z,16.61
2023-08-21T03:10:49.007Z,16.68
2023-08-21T03:11:48.994Z,16.66
2023-08-21T03:12:49.018Z,16.68
2023-08-21T03:13:49.000Z,16.69
2023-08-21T03:14:48.970Z,16.71
2023-08-21T03:15:48.965Z,16.64
2023-08-21T03:16:48.981Z,16.69
2023-08-21T03:17:49.020Z,16.81
2023-08-21T03:18:48.937Z,16.71
2023-08-21T03:19:48.929Z,16.76
2023-08-21T03:20:48.906Z,16.66
2023-08-21T03:21:48.905Z,16.65
2023-08-21T03:22:48.879Z,16.81
2023-08-21T03:23:48.894Z,16.76
2023-08-21T03:24:48.868Z,16.78
2023-08-21T03:25:48.853Z,16.71
2023-08-21T03:26:48.835Z,16.61
2023-08-21T03:27:48.850Z,16.65
2023-08-21T03:28:48.826Z,16.64
2023-08-21T03:29:48.838Z,16.65
2023-08-21T03:30:48.849Z,16.56
2023-08-21T03:31:48.801Z,16.61
2023-08-21T03:32:48.816Z,16.61
2023-08-21T03:33:48.780Z,16.65
2023-08-21T03:34:48.764Z,16.64
2023-08-21T03:35:48.805Z,16.64
2023-08-21T03:36:48.749Z,16.68
2023-08-21T03:37:48.760Z,16.53
2023-08-21T03:38:48.720Z,16.60
2023-08-21T03:39:48.724Z,16.64
2023-08-21T03:40:48.705Z,16.57
2023-08-21T03:41:48.704Z,16.54
2023-08-21T03:42:48.682Z,16.64
2023-08-21T03:43:48.673Z,16.53
2023-08-21T03:44:48.651Z,16.53
2023-08-21T03:45:48.689Z,16.58
2023-08-21T03:46:48.637Z,16.61
2023-08-21T03:47:48.635Z,16.60
2023-08-21T03:48:48.599Z,16.57
2023-08-21T03:49:48.617Z,16.57
2023-08-21T03:50:48.573Z,16.57
2023-08-21T03:51:48.564Z,16.57
2023-08-21T03:52:48.575Z,16.58
2023-08-21T03:53:48.566Z,16.56
2023-08-21T03:54:48.556Z,16.60
2023-08-21T03:55:48.541Z,16.65
2023-08-21T03:56:48.512Z,16.53
2023-08-21T03:57:48.502Z,16.64
2023-08-21T03:58:48.489Z,16.54
2023-08-21T03:59:48.477Z,16.64
2023-08-21T04:00:48.486Z,16.65
2023-08-21T04:01:48.519Z,16.58
2023-08-21T04:02:48.473Z,16.58
2023-08-21T04:03:48.572Z,16.66
2023-08-21T04:04:48.430Z,16.54
2023-08-21T04:05:48.433Z,16.60
2023-08-21T04:06:48.441Z,16.68
2023-08-21T04:07:48.399Z,16.60
2023-08-21T04:08:48.395Z,16.57
2023-08-21T04:09:48.365Z,16.66
2023-08-21T04:10:48.362Z,16.56
2023-08-21T04:11:48.375Z,16.60
2023-08-21T04:12:48.334Z,16.58
2023-08-21T04:13:48.327Z,16.60
2023-08-21T04:14:48.318Z,16.61
2023-08-21T04:15:48.298Z,16.58
2023-08-21T04:16:48.325Z,16.65
2023-08-21T04:17:48.359Z,16.61
2023-08-21T04:18:48.280Z,16.66
2023-08-21T04:19:48.263Z,16.54
2023-08-21T04:20:48.252Z,16.51
2023-08-21T04:21:48.249Z,16.56
2023-08-21T04:22:48.235Z,16.58
2023-08-21T04:23:48.235Z,16.58
2023-08-21T04:24:48.218Z,16.61
2023-08-21T04:25:48.192Z,16.58
2023-08-21T04:26:48.200Z,16.60
2023-08-21T04:27:48.185Z,16.58
2023-08-21T04:28:48.165Z,16.49
2023-08-21T04:29:48.165Z,16.64
2023-08-21T04:30:48.137Z,16.64
2023-08-21T04:31:48.172Z,16.57
2023-08-21T04:32:48.193Z,16.64
2023-08-21T04:33:48.126Z,16.54
2023-08-21T04:34:48.102Z,16.49
2023-08-21T04:35:48.098Z,16.54
2023-08-21T04:36:48.091Z,16.56
2023-08-21T04:37:48.066Z,16.47
2023-08-21T04:38:48.056Z,16.50
2023-08-21T04:39:48.042Z,16.50
2023-08-21T04:40:48.033Z,16.42
2023-08-21T04:41:48.029Z,16.42
2023-08-21T04:42:48.036Z,16.46
2023-08-21T04:43:48.006Z,16.46
2023-08-21T04:44:47.993Z,16.43
2023-08-21T04:45:48.045Z,16.36
2023-08-21T04:46:47.973Z,16.39
2023-08-21T04:47:47.987Z,16.43
2023-08-21T04:48:47.951Z,16.43
2023-08-21T04:49:47.964Z,16.47
2023-08-21T04:50:47.934Z,16.50
2023-08-21T04:51:47.933Z,16.47
2023-08-21T04:52:47.928Z,16.46
2023-08-21T04:53:47.894Z,16.42
2023-08-21T04:54:47.887Z,16.41
2023-08-21T04:55:47.883Z,16.38
2023-08-21T04:56:47.864Z,16.38
2023-08-21T04:57:47.867Z,16.43
2023-08-21T04:58:47.834Z,16.42
2023-08-21T04:59:47.822Z,16.41
2023-08-21T05:00:47.863Z,16.42
2023-08-21T05:01:47.873Z,16.46
2023-08-21T05:02:47.837Z,16.49
2023-08-21T05:03:47.794Z,16.57
2023-08-21T05:04:47.775Z,16.50
2023-08-21T05:05:47.787Z,16.56
2023-08-21T05:06:47.769Z,16.57
2023-08-21T05:07:47.748Z,16.64
2023-08-21T05:08:47.736Z,16.64
2023-08-21T05:09:47.725Z,16.66
2023-08-21T05:10:47.731Z,16.71
2023-08-21T05:11:47.703Z,16.69
2023-08-21T05:12:47.690Z,16.69
2023-08-21T05:13:47.681Z,16.81
2023-08-21T05:14:47.685Z,16.78
2023-08-21T05:15:47.728Z,16.79
2023-08-21T05:16:47.666Z,16.87
2023-08-21T05:17:47.660Z,16.91
2023-08-21T05:18:47.649Z,16.94
2023-08-21T05:19:47.610Z,17.06
2023-08-21T05:20:47.604Z,17.05
2023-08-21T05:21:47.619Z,17.11
2023-08-21T05:22:47.599Z,17.16
2023-08-21T05:23:47.573Z,17.12
2023-08-21T05:24:48.585Z,17.20
2023-08-21T05:25:47.561Z,17.24
2023-08-21T05:26:47.565Z,17.33
2023-08-21T05:27:47.592Z,17.34
2023-08-21T05:28:47.539Z,17.34
2023-08-21T05:29:47.508Z,17.42
2023-08-21T05:30:47.511Z,17.49
2023-08-21T05:31:47.542Z,17.39
2023-08-21T05:32:47.553Z,17.57
2023-08-21T05:33:47.476Z,17.54
2023-08-21T05:34:47.456Z,17.65
2023-08-21T05:35:47.461Z,17.63
2023-08-21T05:36:47.446Z,17.67
2023-08-21T05:37:47.448Z,17.80
2023-08-21T05:38:47.411Z,17.78
2023-08-21T05:39:47.406Z,17.85
2023-08-21T05:40:47.414Z,17.83
2023-08-21T05:41:47.402Z,17.92
2023-08-21T05:42:47.363Z,17.94
2023-08-21T05:43:47.353Z,17.83
2023-08-21T05:44:47.332Z,17.92
2023-08-21T05:45:47.333Z,17.94
2023-08-21T05:46:47.393Z,18.03
2023-08-21T05:47:47.351Z,17.98
2023-08-21T05:48:47.307Z,18.04
2023-08-21T05:49:47.287Z,18.15
2023-08-21T05:50:47.275Z,18.08
2023-08-21T05:51:47.292Z,18.20
2023-08-21T05:52:47.268Z,18.26
2023-08-21T05:53:47.267Z,18.19
2023-08-21T05:54:47.251Z,18.26
2023-08-21T05:55:47.233Z,18.23
2023-08-21T05:56:47.227Z,18.20
2023-08-21T05:57:47.224Z,18.25
2023-08-21T05:58:47.192Z,18.19
2023-08-21T05:59:47.236Z,18.23
2023-08-21T06:00:47.197Z,18.20
2023-08-21T06:01:47.162Z,18.25
2023-08-21T06:02:47.165Z,18.19
2023-08-21T06:03:47.216Z,18.20
2023-08-21T06:04:47.154Z,18.22
2023-08-21T06:05:47.127Z,18.23
2023-08-21T06:06:47.126Z,18.34
2023-08-21T06:07:47.162Z,18.29
2023-08-21T06:08:47.085Z,18.33
2023-08-21T06:09:47.156Z,18.31
2023-08-21T06:10:47.070Z,18.35
2023-08-21T06:11:47.064Z,18.35
2023-08-21T06:12:47.081Z,18.43
2023-08-21T06:13:47.049Z,18.43
2023-08-21T06:14:47.013Z,18.47
2023-08-21T06:15:47.158Z,18.40
2023-08-21T06:16:47.030Z,18.47
2023-08-21T06:17:47.044Z,18.49
2023-08-21T06:18:47.087Z,18.52
2023-08-21T06:19:46.974Z,18.53
2023-08-21T06:20:46.959Z,18.55
2023-08-21T06:21:47.080Z,18.63
2023-08-21T06:22:46.965Z,18.66
2023-08-21T06:23:46.986Z,18.58
2023-08-21T06:24:46.914Z,18.68
2023-08-21T06:25:46.921Z,18.66
2023-08-21T06:26:46.888Z,18.66
2023-08-21T06:27:57.880Z,18.71
2023-08-21T06:28:47.883Z,18.71
2023-08-21T06:29:46.862Z,18.63
2023-08-21T06:30:46.883Z,18.70
2023-08-21T06:31:46.846Z,18.65
2023-08-21T06:32:46.859Z,18.68
2023-08-21T06:33:46.844Z,18.74
2023-08-21T06:34:46.812Z,18.73
2023-08-21T06:35:46.795Z,18.75
2023-08-21T06:36:46.785Z,18.77
2023-08-21T06:37:46.790Z,18.83
2023-08-21T06:38:46.787Z,18.88
2023-08-21T06:39:46.764Z,18.86
2023-08-21T06:40:46.765Z,18.90
2023-08-21T06:41:46.770Z,18.93
2023-08-21T06:42:46.745Z,18.98
2023-08-21T06:43:46.735Z,19.07
2023-08-21T06:44:46.704Z,19.00
2023-08-21T06:45:46.692Z,19.00
2023-08-21T06:46:46.768Z,19.16
2023-08-21T06:47:46.680Z,19.11
2023-08-21T06:48:46.688Z,19.15
2023-08-21T06:49:46.647Z,19.22
2023-08-21T06:50:46.666Z,19.12
2023-08-21T06:51:46.675Z,19.26
2023-08-21T06:52:46.639Z,19.21
2023-08-21T06:53:46.644Z,19.21
2023-08-21T06:54:46.592Z,19.29
2023-08-21T06:55:46.579Z,19.31
2023-08-21T06:56:46.572Z,19.29
2023-08-21T06:57:46.610Z,19.27
2023-08-21T06:58:46.569Z,19.34
2023-08-21T06:59:46.578Z,19.31
2023-08-21T07:00:46.569Z,19.36
2023-08-21T07:01:46.532Z,19.36
2023-08-21T07:02:46.549Z,19.37
2023-08-21T07:03:46.519Z,19.31
2023-08-21T07:04:46.554Z,19.31
2023-08-21T07:05:46.473Z,19.29
2023-08-21T07:06:46.465Z,19.41
2023-08-21T07:07:46.466Z,19.36
2023-08-21T07:08:46.453Z,19.39
2023-08-21T07:09:46.443Z,19.47
2023-08-21T07:10:46.436Z,19.49
2023-08-21T07:11:46.485Z,19.39
2023-08-21T07:12:46.404Z,19.44
2023-08-21T07:13:46.423Z,19.44
2023-08-21T07:14:46.383Z,19.39
2023-08-21T07:15:46.403Z,19.52
2023-08-21T07:16:46.430Z,19.51
2023-08-21T07:17:46.355Z,19.51
2023-08-21T07:18:46.344Z,19.52
2023-08-21T07:19:47.611Z,19.49
2023-08-21T07:20:46.332Z,19.64
2023-08-21T07:21:46.326Z,19.56
2023-08-21T07:22:46.299Z,19.62
2023-08-21T07:23:46.298Z,19.58
2023-08-21T07:24:46.283Z,19.54
2023-08-21T07:25:46.372Z,19.54
2023-08-21T07:26:46.277Z,19.55
2023-08-21T07:27:46.253Z,19.56
2023-08-21T07:28:46.237Z,19.62
2023-08-21T07:29:46.248Z,19.58
2023-08-21T07:30:46.225Z,19.56
2023-08-21T07:31:46.229Z,19.63
2023-08-21T07:32:46.221Z,19.58
2023-08-21T07:33:46.187Z,19.62
2023-08-21T07:34:46.188Z,19.52
2023-08-21T07:35:46.170Z,19.54
2023-08-21T07:36:46.199Z,19.51
2023-08-21T07:37:46.157Z,19.51
2023-08-21T07:38:46.131Z,19.51
2023-08-21T07:39:46.152Z,19.51
2023-08-21T07:40:46.107Z,19.52
2023-08-21T07:41:46.115Z,19.56
2023-08-21T07:42:46.090Z,19.63
2023-08-21T07:43:46.123Z,19.67
2023-08-21T07:44:46.092Z,19.70
2023-08-21T07:45:46.101Z,19.77
2023-08-21T07:46:46.057Z,19.70
2023-08-21T07:47:46.098Z,19.81
2023-08-21T07:48:46.040Z,19.77
2023-08-21T07:49:46.036Z,19.91
2023-08-21T07:50:46.002Z,19.94
2023-08-21T07:51:46.026Z,20.03
2023-08-21T07:52:45.983Z,20.09
2023-08-21T07:53:45.970Z,20.19
2023-08-21T07:54:46.014Z,20.25
2023-08-21T07:55:45.952Z,20.28
2023-08-21T07:56:45.953Z,20.31
2023-08-21T07:57:45.962Z,20.41
2023-08-21T07:58:45.918Z,20.41
2023-08-21T07:59:45.916Z,20.44
2023-08-21T08:00:45.894Z,20.52
2023-08-21T08:01:45.949Z,20.62
2023-08-21T08:02:45.931Z,20.69
2023-08-21T08:03:45.892Z,20.82
2023-08-21T08:04:45.858Z,20.90
2023-08-21T08:05:54.733Z,20.81
2023-08-21T08:06:46.831Z,20.96
2023-08-21T08:07:45.847Z,20.96
2023-08-21T08:08:45.806Z,21.03
2023-08-21T08:09:45.813Z,20.97
2023-08-21T08:10:45.788Z,21.14
2023-08-21T08:11:45.779Z,21.11
2023-08-21T08:12:45.796Z,21.17
2023-08-21T08:13:45.771Z,21.20
2023-08-21T08:14:45.741Z,21.25
2023-08-21T08:15:45.752Z,21.27
2023-08-21T08:16:45.733Z,21.27
2023-08-21T08:17:45.788Z,21.24
2023-08-21T08:18:45.731Z,21.35
2023-08-21T08:19:45.721Z,21.42
2023-08-21T08:20:45.676Z,21.37
2023-08-21T08:21:45.667Z,21.54
2023-08-21T08:22:45.675Z,21.60
2023-08-21T08:23:45.656Z,21.66
2023-08-21T08:24:45.636Z,21.67
2023-08-21T08:25:45.646Z,21.77
2023-08-21T08:26:45.632Z,21.85
2023-08-21T08:27:45.618Z,21.89
2023-08-21T08:28:45.598Z,21.95
2023-08-21T08:29:45.598Z,22.06
2023-08-21T08:30:45.569Z,22.07
2023-08-21T08:31:45.629Z,22.18
2023-08-21T08:32:45.873Z,22.15
2023-08-21T08:33:45.554Z,22.20
2023-08-21T08:34:45.522Z,22.15
2023-08-21T08:35:45.521Z,22.29
2023-08-21T08:36:45.510Z,22.32
2023-08-21T08:37:45.504Z,22.26
2023-08-21T08:38:45.506Z,22.30
2023-08-21T08:39:45.473Z,22.28
2023-08-21T08:40:45.465Z,22.32
2023-08-21T08:41:45.450Z,22.32
2023-08-21T08:42:45.452Z,22.30
2023-08-21T08:43:45.439Z,22.33
2023-08-21T08:44:45.417Z,22.32
2023-08-21T08:45:46.813Z,22.36
2023-08-21T08:46:45.408Z,22.30
2023-08-21T08:47:45.428Z,22.30
2023-08-21T08:48:45.442Z,22.28
2023-08-21T08:49:45.376Z,22.26
2023-08-21T08:50:45.361Z,22.13
2023-08-21T08:51:45.349Z,22.15
2023-08-21T08:52:45.337Z,22.20
2023-08-21T08:53:45.320Z,22.25
2023-08-21T08:54:45.331Z,22.26
2023-08-21T08:55:45.301Z,22.32
2023-08-21T08:56:47.137Z,22.39
2023-08-21T08:57:45.283Z,22.39
2023-08-21T08:58:45.285Z,22.35
2023-08-21T08:59:45.257Z,22.44
2023-08-21T09:00:45.246Z,22.48
2023-08-21T09:01:45.306Z,22.44
2023-08-21T09:02:45.263Z,22.43
2023-08-21T09:03:45.290Z,22.45
2023-08-21T09:04:45.209Z,22.44
2023-08-21T09:05:45.267Z,22.48
2023-08-21T09:06:45.200Z,22.38
2023-08-21T09:07:45.171Z,22.36
2023-08-21T09:08:45.159Z,22.36
2023-08-21T09:09:45.231Z,22.32
2023-08-21T09:10:45.158Z,22.33
2023-08-21T09:11:45.165Z,22.28
2023-08-21T09:12:45.469Z,22.41
2023-08-21T09:13:45.109Z,22.38
2023-08-21T09:14:45.124Z,22.38
2023-08-21T09:15:45.167Z,22.45
2023-08-21T09:16:45.078Z,22.48
2023-08-21T09:17:45.127Z,22.50
2023-08-21T09:18:45.055Z,22.54
2023-08-21T09:19:45.102Z,22.53
2023-08-21T09:20:45.053Z,22.55
2023-08-21T09:21:45.042Z,22.62
2023-08-21T09:22:45.027Z,22.55
2023-08-21T09:23:45.000Z,22.51
2023-08-21T09:24:46.829Z,22.54
2023-08-21T09:25:44.981Z,22.47
2023-08-21T09:26:44.967Z,22.47
2023-08-21T09:27:44.958Z,22.45
2023-08-21T09:28:44.943Z,22.43
2023-08-21T09:29:44.936Z,22.47
2023-08-21T09:30:44.941Z,22.44
2023-08-21T09:31:45.030Z,22.44
2023-08-21T09:32:44.946Z,22.50
2023-08-21T09:33:44.888Z,22.44
2023-08-21T09:34:44.880Z,22.44
2023-08-21T09:35:45.024Z,22.41
2023-08-21T09:36:44.871Z,22.41
2023-08-21T09:37:44.883Z,22.35
2023-08-21T09:38:44.846Z,22.36
2023-08-21T09:39:44.829Z,22.39
2023-08-21T09:40:44.834Z,22.39
2023-08-21T09:41:44.817Z,22.36
2023-08-21T09:42:44.801Z,22.44
2023-08-21T09:43:44.808Z,22.41
2023-08-21T09:44:44.781Z,22.45
2023-08-21T09:45:44.771Z,22.45
2023-08-21T09:46:44.828Z,22.50
2023-08-21T09:47:44.804Z,22.48
2023-08-21T09:48:44.734Z,22.45
2023-08-21T09:49:44.721Z,22.63
2023-08-21T09:50:47.345Z,22.65
2023-08-21T09:51:44.724Z,22.60
2023-08-21T09:52:44.706Z,22.65
2023-08-21T09:53:44.703Z,22.76
2023-08-21T09:54:44.674Z,22.72
2023-08-21T09:55:44.655Z,22.70
2023-08-21T09:56:44.645Z,22.78
2023-08-21T09:57:44.695Z,22.80
2023-08-21T09:58:44.639Z,22.81
2023-08-21T09:59:44.617Z,22.80
2023-08-21T10:00:44.651Z,22.94
2023-08-21T10:01:44.597Z,22.96
2023-08-21T10:02:44.583Z,22.99
2023-08-21T10:03:44.655Z,23.02
2023-08-21T10:04:47.098Z,23.03
2023-08-21T10:05:44.586Z,22.99
2023-08-21T10:06:44.548Z,23.13
2023-08-21T10:07:44.548Z,23.03
2023-08-21T10:08:44.524Z,23.00
2023-08-21T10:09:44.529Z,23.23
2023-08-21T10:10:44.541Z,23.23
2023-08-21T10:11:44.559Z,23.18
2023-08-21T10:12:44.490Z,23.23
2023-08-21T10:13:44.482Z,23.24
2023-08-21T10:14:44.456Z,23.28
2023-08-21T10:15:44.460Z,23.28
2023-08-21T10:16:44.501Z,23.40
2023-08-21T10:17:44.454Z,23.27
2023-08-21T10:18:44.417Z,23.40
2023-08-21T10:19:44.406Z,23.40
2023-08-21T10:20:44.392Z,23.37
2023-08-21T10:21:44.391Z,23.40
2023-08-21T10:22:44.402Z,23.40
2023-08-21T10:23:45.891Z,23.43
2023-08-21T10:24:44.348Z,23.40
2023-08-21T10:25:44.416Z,23.48
2023-08-21T10:27:44.320Z,23.50
2023-08-21T10:28:44.332Z,23.48
2023-08-21T10:29:44.297Z,23.56
2023-08-21T10:30:44.357Z,23.54
2023-08-21T10:31:44.488Z,23.48
2023-08-21T10:32:44.312Z,23.54
2023-08-21T10:33:44.255Z,23.56
2023-08-21T10:34:44.277Z,23.59
2023-08-21T10:35:44.239Z,23.56
2023-08-21T10:36:44.281Z,23.54
2023-08-21T10:37:44.214Z,23.55
2023-08-21T10:38:44.299Z,23.55
2023-08-21T10:39:44.223Z,23.56
2023-08-21T10:40:44.182Z,23.56
2023-08-21T10:41:44.200Z,23.58
2023-08-21T10:42:44.199Z,23.50
2023-08-21T10:43:44.170Z,23.55
2023-08-21T10:44:44.133Z,23.51
2023-08-21T10:45:44.125Z,23.55
2023-08-21T10:46:44.172Z,23.51
2023-08-21T10:47:44.165Z,23.63
2023-08-21T10:48:44.099Z,23.77
2023-08-21T10:49:44.119Z,23.77
2023-08-21T10:50:44.460Z,23.76
2023-08-21T10:51:44.065Z,23.80
2023-08-21T10:52:44.111Z,23.71
2023-08-21T10:53:44.054Z,23.69
2023-08-21T10:54:44.061Z,23.66
2023-08-21T10:55:44.016Z,23.68
2023-08-21T10:56:44.049Z,23.71
2023-08-21T10:57:44.025Z,23.65
2023-08-21T10:58:44.004Z,23.65
2023-08-21T10:59:43.993Z,23.71
2023-08-21T11:00:43.990Z,23.69
2023-08-21T11:01:43.999Z,23.83
2023-08-21T11:02:43.978Z,23.80
2023-08-21T11:03:43.938Z,23.84
2023-08-21T11:04:43.970Z,23.83
2023-08-21T11:05:43.927Z,23.91
2023-08-21T11:06:43.900Z,23.91
2023-08-21T11:07:43.890Z,23.96
2023-08-21T11:08:43.882Z,23.84
2023-08-21T11:09:43.870Z,23.84
2023-08-21T11:10:43.856Z,23.83
2023-08-21T11:11:43.861Z,23.81
2023-08-21T11:12:43.854Z,23.77
2023-08-21T11:13:43.874Z,23.81
2023-08-21T11:14:43.836Z,23.88
2023-08-21T11:15:43.839Z,23.92
2023-08-21T11:16:43.861Z,23.87
2023-08-21T11:17:43.835Z,23.86
2023-08-21T11:18:43.772Z,23.86
2023-08-21T11:19:43.761Z,23.87
2023-08-21T11:20:44.388Z,23.83
2023-08-21T11:21:43.745Z,23.81
2023-08-21T11:22:43.765Z,23.87
2023-08-21T11:23:43.720Z,23.86
2023-08-21T11:24:43.708Z,23.86
2023-08-21T11:25:43.718Z,23.93
2023-08-21T11:26:43.686Z,23.98
2023-08-21T11:27:43.678Z,23.96
2023-08-21T11:28:43.692Z,24.01
2023-08-21T11:29:43.690Z,23.96
2023-08-21T11:30:43.652Z,24.05
2023-08-21T11:31:43.692Z,24.11
2023-08-21T11:32:43.698Z,24.11
2023-08-21T11:33:43.621Z,24.13
2023-08-21T11:34:43.609Z,24.10
2023-08-21T11:35:43.608Z,24.13
2023-08-21T11:36:43.586Z,24.23
2023-08-21T11:37:43.660Z,24.18
2023-08-21T11:38:43.663Z,24.13
2023-08-21T11:39:43.689Z,24.28
2023-08-21T11:40:43.550Z,24.26
2023-08-21T11:41:43.602Z,24.24
2023-08-21T11:42:43.576Z,24.26
2023-08-21T11:43:43.560Z,24.24
2023-08-21T11:44:43.543Z,24.21
2023-08-21T11:45:56.946Z,24.24
2023-08-21T11:46:44.551Z,24.28
2023-08-21T11:47:43.538Z,24.23
2023-08-21T11:48:43.487Z,24.30
2023-08-21T11:49:43.448Z,24.33
2023-08-21T11:50:45.682Z,24.33
2023-08-21T11:51:43.453Z,24.47
2023-08-21T11:52:43.435Z,24.50
2023-08-21T11:53:43.405Z,24.51
2023-08-21T11:54:43.445Z,24.51
2023-08-21T11:55:43.386Z,24.48
2023-08-21T11:56:43.373Z,24.43
2023-08-21T11:57:43.381Z,24.42
2023-08-21T11:58:43.360Z,24.39
2023-08-21T11:59:43.344Z,24.29
2023-08-21T12:00:43.337Z,24.35
2023-08-21T12:01:43.391Z,24.33
2023-08-21T12:02:43.325Z,24.39
2023-08-21T12:03:43.392Z,24.39
2023-08-21T12:04:44.442Z,24.42
2023-08-21T12:05:43.281Z,24.47
2023-08-21T12:06:43.264Z,24.54
2023-08-21T12:07:43.269Z,24.55
2023-08-21T12:08:43.296Z,24.50
2023-08-21T12:09:43.232Z,24.45
2023-08-21T12:10:43.237Z,24.48
2023-08-21T12:11:43.241Z,24.53
2023-08-21T12:12:43.209Z,24.51
2023-08-21T12:13:43.209Z,24.50
2023-08-21T12:14:43.189Z,24.48
2023-08-21T12:15:43.281Z,24.45
2023-08-21T12:16:43.165Z,24.51
2023-08-21T12:17:43.228Z,24.66
2023-08-21T12:18:43.149Z,24.57
2023-08-21T12:19:43.148Z,24.65
2023-08-21T12:20:43.127Z,24.58
2023-08-21T12:21:43.137Z,24.53
2023-08-21T12:22:43.117Z,24.53
2023-08-21T12:23:43.120Z,24.48
2023-08-21T12:24:43.083Z,24.48
2023-08-21T12:25:43.067Z,24.54
2023-08-21T12:26:49.895Z,24.47
2023-08-21T12:27:44.882Z,24.53
2023-08-21T12:28:43.043Z,24.53
2023-08-21T12:29:43.041Z,24.53
2023-08-21T12:30:43.024Z,24.63
2023-08-21T12:31:43.057Z,24.66
2023-08-21T12:32:43.076Z,24.65
2023-08-21T12:33:43.037Z,24.61
2023-08-21T12:34:43.020Z,24.65
2023-08-21T12:35:42.967Z,24.66
2023-08-21T12:36:42.957Z,24.60
2023-08-21T12:37:42.949Z,24.65
2023-08-21T12:38:42.955Z,24.55
2023-08-21T12:39:42.963Z,24.66
2023-08-21T12:40:42.908Z,24.70
2023-08-21T12:41:42.912Z,24.76
2023-08-21T12:42:42.897Z,24.80
2023-08-21T12:43:42.885Z,24.77
2023-08-21T12:44:42.925Z,24.78
2023-08-21T12:45:42.932Z,24.80
2023-08-21T12:46:42.863Z,24.85
2023-08-21T12:47:43.007Z,24.96
2023-08-21T12:48:42.859Z,24.93
2023-08-21T12:49:42.841Z,24.84
2023-08-21T12:50:42.815Z,24.80
2023-08-21T12:51:42.797Z,24.89
2023-08-21T12:52:42.790Z,24.89
2023-08-21T12:53:42.777Z,24.89